sensor_id;sensor_type;location;lat;lon;timestamp;P1;durP1;ratioP1;P2;durP2;ratioP2
56073;SDS011;41950;55.840;37.442;2023-04-01T00:00:59;18.42;;;12.30;;
56073;SDS011;41950;55.840;37.442;2023-04-01T00:03:28;16.80;;;12.50;;
56073;SDS011;41950;55.840;37.442;2023-04-01T00:05:58;16.38;;;11.38;;
56073;SDS011;41950;55.840;37.442;2023-04-01T00:08:24;16.02;;;12.20;;
56073;SDS011;41950;55.840;37.442;2023-04-01T00:10:52;17.38;;;11.85;;
56073;SDS011;41950;55.840;37.442;2023-04-01T00:13:18;15.57;;;11.60;;
56073;SDS011;41950;55.840;37.442;2023-04-01T00:15:44;16.70;;;12.43;;
56073;SDS011;41950;55.840;37.442;2023-04-01T00:18:11;16.30;;;11.02;;
56073;SDS011;41950;55.840;37.442;2023-04-01T00:20:38;15.55;;;11.18;;
56073;SDS011;41950;55.840;37.442;2023-04-01T00:23:03;16.42;;;11.73;;
56073;SDS011;41950;55.840;37.442;2023-04-01T00:25:30;17.38;;;12.02;;
56073;SDS011;41950;55.840;37.442;2023-04-01T00:27:56;18.17;;;12.05;;
56073;SDS011;41950;55.840;37.442;2023-04-01T00:30:21;15.50;;;11.48;;
56073;SDS011;41950;55.840;37.442;2023-04-01T00:32:50;17.75;;;11.68;;
56073;SDS011;41950;55.840;37.442;2023-04-01T00:35:17;17.00;;;12.60;;
56073;SDS011;41950;55.840;37.442;2023-04-01T00:37:44;15.23;;;11.73;;
56073;SDS011;41950;55.840;37.442;2023-04-01T00:40:21;18.33;;;12.70;;
56073;SDS011;41950;55.840;37.442;2023-04-01T00:42:49;16.92;;;11.02;;
56073;SDS011;41950;55.840;37.442;2023-04-01T00:45:34;16.27;;;11.38;;
56073;SDS011;41950;55.840;37.442;2023-04-01T00:48:22;16.65;;;11.18;;
56073;SDS011;41950;55.840;37.442;2023-04-01T00:50:51;16.10;;;10.93;;
56073;SDS011;41950;55.840;37.442;2023-04-01T00:53:21;15.40;;;11.48;;
56073;SDS011;41950;55.840;37.442;2023-04-01T00:55:54;17.33;;;12.18;;
56073;SDS011;41950;55.840;37.442;2023-04-01T00:58:36;16.48;;;11.55;;
56073;SDS011;41950;55.840;37.442;2023-04-01T01:01:05;15.38;;;11.25;;
56073;SDS011;41950;55.840;37.442;2023-04-01T01:03:31;18.60;;;12.50;;
56073;SDS011;41950;55.840;37.442;2023-04-01T01:36:26;15.60;;;11.85;;
56073;SDS011;41950;55.840;37.442;2023-04-01T01:38:56;15.93;;;12.55;;
56073;SDS011;41950;55.840;37.442;2023-04-01T01:41:23;13.35;;;11.30;;
56073;SDS011;41950;55.840;37.442;2023-04-01T01:43:51;16.55;;;11.98;;
56073;SDS011;41950;55.840;37.442;2023-04-01T01:46:22;15.57;;;11.32;;
56073;SDS011;41950;55.840;37.442;2023-04-01T01:48:50;14.50;;;11.07;;
56073;SDS011;41950;55.840;37.442;2023-04-01T01:51:18;16.65;;;12.23;;
56073;SDS011;41950;55.840;37.442;2023-04-01T01:53:45;15.05;;;11.35;;
56073;SDS011;41950;55.840;37.442;2023-04-01T01:56:11;16.50;;;12.30;;
56073;SDS011;41950;55.840;37.442;2023-04-01T01:58:45;16.10;;;12.73;;
56073;SDS011;41950;55.840;37.442;2023-04-01T02:01:16;16.52;;;12.15;;
56073;SDS011;41950;55.840;37.442;2023-04-01T02:03:45;16.55;;;12.48;;
56073;SDS011;41950;55.840;37.442;2023-04-01T02:06:15;18.35;;;12.90;;
56073;SDS011;41950;55.840;37.442;2023-04-01T02:08:50;17.40;;;13.15;;
56073;SDS011;41950;55.840;37.442;2023-04-01T02:11:17;15.38;;;12.02;;
56073;SDS011;41950;55.840;37.442;2023-04-01T02:16:49;16.52;;;11.85;;
56073;SDS011;41950;55.840;37.442;2023-04-01T02:19:22;16.05;;;11.65;;
56073;SDS011;41950;55.840;37.442;2023-04-01T02:21:56;18.38;;;13.30;;
56073;SDS011;41950;55.840;37.442;2023-04-01T02:24:25;17.50;;;11.65;;
56073;SDS011;41950;55.840;37.442;2023-04-01T02:26:53;16.52;;;11.90;;
56073;SDS011;41950;55.840;37.442;2023-04-01T02:29:22;18.42;;;12.00;;
56073;SDS011;41950;55.840;37.442;2023-04-01T02:31:53;17.10;;;11.68;;
56073;SDS011;41950;55.840;37.442;2023-04-01T02:34:20;16.70;;;11.80;;
56073;SDS011;41950;55.840;37.442;2023-04-01T02:36:48;16.83;;;12.38;;
56073;SDS011;41950;55.840;37.442;2023-04-01T02:39:15;15.75;;;11.63;;
56073;SDS011;41950;55.840;37.442;2023-04-01T02:41:41;16.20;;;12.23;;
56073;SDS011;41950;55.840;37.442;2023-04-01T02:44:08;16.63;;;12.45;;
56073;SDS011;41950;55.840;37.442;2023-04-01T02:46:35;17.55;;;12.68;;
56073;SDS011;41950;55.840;37.442;2023-04-01T02:49:01;16.88;;;12.07;;
56073;SDS011;41950;55.840;37.442;2023-04-01T02:51:26;17.58;;;12.15;;
56073;SDS011;41950;55.840;37.442;2023-04-01T02:53:52;16.23;;;11.52;;
56073;SDS011;41950;55.840;37.442;2023-04-01T02:56:17;17.38;;;11.95;;
56073;SDS011;41950;55.840;37.442;2023-04-01T02:58:44;18.75;;;13.82;;
56073;SDS011;41950;55.840;37.442;2023-04-01T03:01:10;16.27;;;12.95;;
56073;SDS011;41950;55.840;37.442;2023-04-01T03:03:36;17.50;;;12.50;;
56073;SDS011;41950;55.840;37.442;2023-04-01T03:06:09;16.83;;;12.48;;
56073;SDS011;41950;55.840;37.442;2023-04-01T03:08:36;16.70;;;11.90;;
56073;SDS011;41950;55.840;37.442;2023-04-01T03:11:02;16.35;;;12.30;;
56073;SDS011;41950;55.840;37.442;2023-04-01T03:13:28;16.67;;;11.85;;
56073;SDS011;41950;55.840;37.442;2023-04-01T03:15:54;17.63;;;11.75;;
56073;SDS011;41950;55.840;37.442;2023-04-01T03:18:19;15.50;;;11.60;;
56073;SDS011;41950;55.840;37.442;2023-04-01T03:20:45;15.98;;;11.38;;
56073;SDS011;41950;55.840;37.442;2023-04-01T03:23:11;16.58;;;12.10;;
56073;SDS011;41950;55.840;37.442;2023-04-01T03:25:37;16.52;;;12.70;;
56073;SDS011;41950;55.840;37.442;2023-04-01T03:28:02;18.38;;;13.02;;
56073;SDS011;41950;55.840;37.442;2023-04-01T03:30:29;15.90;;;12.18;;
56073;SDS011;41950;55.840;37.442;2023-04-01T03:32:57;15.82;;;12.02;;
56073;SDS011;41950;55.840;37.442;2023-04-01T03:35:24;14.73;;;11.10;;
56073;SDS011;41950;55.840;37.442;2023-04-01T03:37:51;16.33;;;11.52;;
56073;SDS011;41950;55.840;37.442;2023-04-01T03:40:17;17.63;;;12.57;;
56073;SDS011;41950;55.840;37.442;2023-04-01T03:42:43;16.02;;;10.10;;
56073;SDS011;41950;55.840;37.442;2023-04-01T03:45:09;18.58;;;12.55;;
56073;SDS011;41950;55.840;37.442;2023-04-01T03:47:35;16.05;;;12.45;;
56073;SDS011;41950;55.840;37.442;2023-04-01T03:50:00;17.38;;;12.15;;
56073;SDS011;41950;55.840;37.442;2023-04-01T03:52:26;17.50;;;12.52;;
56073;SDS011;41950;55.840;37.442;2023-04-01T03:54:52;18.58;;;13.20;;
56073;SDS011;41950;55.840;37.442;2023-04-01T03:57:18;15.95;;;11.88;;
56073;SDS011;41950;55.840;37.442;2023-04-01T03:59:43;17.77;;;12.35;;
56073;SDS011;41950;55.840;37.442;2023-04-01T04:02:09;15.73;;;11.50;;
56073;SDS011;41950;55.840;37.442;2023-04-01T04:04:35;17.10;;;11.68;;
56073;SDS011;41950;55.840;37.442;2023-04-01T04:07:00;16.92;;;12.23;;
56073;SDS011;41950;55.840;37.442;2023-04-01T04:09:26;15.02;;;11.00;;
56073;SDS011;41950;55.840;37.442;2023-04-01T04:11:52;17.63;;;12.10;;
56073;SDS011;41950;55.840;37.442;2023-04-01T04:14:17;14.93;;;11.43;;
56073;SDS011;41950;55.840;37.442;2023-04-01T04:16:44;16.58;;;11.25;;
56073;SDS011;41950;55.840;37.442;2023-04-01T04:19:09;17.27;;;11.88;;
56073;SDS011;41950;55.840;37.442;2023-04-01T04:21:35;20.33;;;11.95;;
56073;SDS011;41950;55.840;37.442;2023-04-01T04:24:01;16.95;;;11.30;;
56073;SDS011;41950;55.840;37.442;2023-04-01T04:26:27;19.05;;;11.30;;
56073;SDS011;41950;55.840;37.442;2023-04-01T04:28:53;16.88;;;11.70;;
56073;SDS011;41950;55.840;37.442;2023-04-01T04:31:20;17.40;;;11.30;;
56073;SDS011;41950;55.840;37.442;2023-04-01T04:33:50;18.35;;;10.35;;
56073;SDS011;41950;55.840;37.442;2023-04-01T04:36:16;17.75;;;11.57;;
56073;SDS011;41950;55.840;37.442;2023-04-01T04:38:43;16.13;;;11.48;;
56073;SDS011;41950;55.840;37.442;2023-04-01T04:41:09;15.02;;;10.20;;
56073;SDS011;41950;55.840;37.442;2023-04-01T04:43:35;15.32;;;11.43;;
56073;SDS011;41950;55.840;37.442;2023-04-01T04:46:04;17.27;;;11.30;;
56073;SDS011;41950;55.840;37.442;2023-04-01T04:48:33;17.55;;;11.60;;
56073;SDS011;41950;55.840;37.442;2023-04-01T04:50:58;17.50;;;11.50;;
56073;SDS011;41950;55.840;37.442;2023-04-01T04:53:24;20.02;;;11.88;;
56073;SDS011;41950;55.840;37.442;2023-04-01T04:55:51;16.33;;;10.93;;
56073;SDS011;41950;55.840;37.442;2023-04-01T04:58:17;17.42;;;11.52;;
56073;SDS011;41950;55.840;37.442;2023-04-01T05:00:43;20.05;;;12.50;;
56073;SDS011;41950;55.840;37.442;2023-04-01T05:03:09;19.08;;;11.35;;
56073;SDS011;41950;55.840;37.442;2023-04-01T05:05:35;16.10;;;12.00;;
56073;SDS011;41950;55.840;37.442;2023-04-01T05:08:01;18.73;;;12.38;;
56073;SDS011;41950;55.840;37.442;2023-04-01T05:10:27;18.15;;;12.85;;
56073;SDS011;41950;55.840;37.442;2023-04-01T05:12:53;18.90;;;13.27;;
56073;SDS011;41950;55.840;37.442;2023-04-01T05:15:19;16.48;;;12.15;;
56073;SDS011;41950;55.840;37.442;2023-04-01T05:17:45;20.50;;;12.70;;
56073;SDS011;41950;55.840;37.442;2023-04-01T05:20:11;17.98;;;12.98;;
56073;SDS011;41950;55.840;37.442;2023-04-01T05:22:38;17.90;;;13.27;;
56073;SDS011;41950;55.840;37.442;2023-04-01T05:25:05;17.33;;;14.05;;
56073;SDS011;41950;55.840;37.442;2023-04-01T05:27:31;18.60;;;13.32;;
56073;SDS011;41950;55.840;37.442;2023-04-01T05:29:57;17.27;;;13.90;;
56073;SDS011;41950;55.840;37.442;2023-04-01T05:32:23;19.67;;;14.25;;
56073;SDS011;41950;55.840;37.442;2023-04-01T05:34:52;17.67;;;14.13;;
56073;SDS011;41950;55.840;37.442;2023-04-01T05:37:19;17.60;;;13.43;;
56073;SDS011;41950;55.840;37.442;2023-04-01T05:39:45;19.35;;;12.85;;
56073;SDS011;41950;55.840;37.442;2023-04-01T05:42:11;17.60;;;12.45;;
56073;SDS011;41950;55.840;37.442;2023-04-01T05:44:37;18.85;;;13.25;;
56073;SDS011;41950;55.840;37.442;2023-04-01T05:47:03;19.00;;;14.02;;
56073;SDS011;41950;55.840;37.442;2023-04-01T05:49:29;18.20;;;13.10;;
56073;SDS011;41950;55.840;37.442;2023-04-01T05:51:55;22.05;;;13.70;;
56073;SDS011;41950;55.840;37.442;2023-04-01T05:54:24;20.15;;;13.27;;
56073;SDS011;41950;55.840;37.442;2023-04-01T05:57:06;19.92;;;11.73;;
56073;SDS011;41950;55.840;37.442;2023-04-01T05:59:31;20.63;;;11.98;;
56073;SDS011;41950;55.840;37.442;2023-04-01T06:01:57;19.73;;;12.43;;
56073;SDS011;41950;55.840;37.442;2023-04-01T06:04:23;25.80;;;12.77;;
56073;SDS011;41950;55.840;37.442;2023-04-01T06:06:50;17.27;;;12.15;;
56073;SDS011;41950;55.840;37.442;2023-04-01T06:09:17;23.45;;;13.90;;
56073;SDS011;41950;55.840;37.442;2023-04-01T06:47:40;17.83;;;11.95;;
56073;SDS011;41950;55.840;37.442;2023-04-01T06:59:17;15.35;;;11.18;;
56073;SDS011;41950;55.840;37.442;2023-04-01T07:02:04;16.00;;;11.75;;
56073;SDS011;41950;55.840;37.442;2023-04-01T07:04:43;15.23;;;11.85;;
56073;SDS011;41950;55.840;37.442;2023-04-01T07:07:14;15.18;;;11.05;;
56073;SDS011;41950;55.840;37.442;2023-04-01T07:09:50;15.98;;;12.65;;
56073;SDS011;41950;55.840;37.442;2023-04-01T07:12:22;14.48;;;11.02;;
56073;SDS011;41950;55.840;37.442;2023-04-01T07:15:22;16.80;;;12.07;;
56073;SDS011;41950;55.840;37.442;2023-04-01T07:17:58;14.93;;;12.45;;
56073;SDS011;41950;55.840;37.442;2023-04-01T07:20:31;15.38;;;11.93;;
56073;SDS011;41950;55.840;37.442;2023-04-01T07:23:04;17.13;;;13.50;;
56073;SDS011;41950;55.840;37.442;2023-04-01T07:25:37;15.60;;;13.27;;
56073;SDS011;41950;55.840;37.442;2023-04-01T07:28:06;16.73;;;12.60;;
56073;SDS011;41950;55.840;37.442;2023-04-01T07:33:17;17.70;;;12.77;;
56073;SDS011;41950;55.840;37.442;2023-04-01T07:35:52;19.52;;;13.65;;
56073;SDS011;41950;55.840;37.442;2023-04-01T07:44:55;19.40;;;12.43;;
56073;SDS011;41950;55.840;37.442;2023-04-01T07:50:29;15.20;;;12.57;;
56073;SDS011;41950;55.840;37.442;2023-04-01T07:55:50;20.08;;;13.80;;
56073;SDS011;41950;55.840;37.442;2023-04-01T08:04:07;16.95;;;11.65;;
56073;SDS011;41950;55.840;37.442;2023-04-01T08:06:49;14.88;;;11.27;;
56073;SDS011;41950;55.840;37.442;2023-04-01T08:12:31;16.77;;;11.77;;
56073;SDS011;41950;55.840;37.442;2023-04-01T08:23:27;16.08;;;11.30;;
56073;SDS011;41950;55.840;37.442;2023-04-01T08:25:58;17.02;;;12.27;;
56073;SDS011;41950;55.840;37.442;2023-04-01T08:28:37;19.27;;;12.00;;
56073;SDS011;41950;55.840;37.442;2023-04-01T08:31:18;19.73;;;12.85;;
56073;SDS011;41950;55.840;37.442;2023-04-01T08:33:49;17.45;;;11.85;;
56073;SDS011;41950;55.840;37.442;2023-04-01T08:38:49;18.42;;;11.63;;
56073;SDS011;41950;55.840;37.442;2023-04-01T08:52:49;15.07;;;9.95;;
56073;SDS011;41950;55.840;37.442;2023-04-01T08:58:34;15.30;;;10.60;;
56073;SDS011;41950;55.840;37.442;2023-04-01T09:09:02;11.63;;;7.75;;
56073;SDS011;41950;55.840;37.442;2023-04-01T09:20:24;9.13;;;6.18;;
56073;SDS011;41950;55.840;37.442;2023-04-01T09:31:33;9.63;;;6.97;;
56073;SDS011;41950;55.840;37.442;2023-04-01T09:34:25;10.40;;;7.63;;
56073;SDS011;41950;55.840;37.442;2023-04-01T09:37:07;11.27;;;7.03;;
56073;SDS011;41950;55.840;37.442;2023-04-01T09:39:47;10.90;;;7.57;;
56073;SDS011;41950;55.840;37.442;2023-04-01T09:42:45;11.20;;;7.20;;
56073;SDS011;41950;55.840;37.442;2023-04-01T09:48:02;10.30;;;6.53;;
56073;SDS011;41950;55.840;37.442;2023-04-01T09:53:25;10.52;;;6.22;;
56073;SDS011;41950;55.840;37.442;2023-04-01T09:56:19;9.38;;;5.78;;
56073;SDS011;41950;55.840;37.442;2023-04-01T10:08:14;10.18;;;7.00;;
56073;SDS011;41950;55.840;37.442;2023-04-01T10:25:03;12.80;;;9.25;;
56073;SDS011;41950;55.840;37.442;2023-04-01T10:30:48;9.88;;;6.93;;
56073;SDS011;41950;55.840;37.442;2023-04-01T10:33:38;11.95;;;7.65;;
56073;SDS011;41950;55.840;37.442;2023-04-01T10:48:22;7.50;;;5.18;;
56073;SDS011;41950;55.840;37.442;2023-04-01T10:53:53;6.35;;;4.72;;
56073;SDS011;41950;55.840;37.442;2023-04-01T11:24:53;11.38;;;5.28;;
56073;SDS011;41950;55.840;37.442;2023-04-01T11:32:57;6.53;;;4.90;;
56073;SDS011;41950;55.840;37.442;2023-04-01T11:44:19;6.18;;;4.45;;
56073;SDS011;41950;55.840;37.442;2023-04-01T12:01:05;5.28;;;3.17;;
56073;SDS011;41950;55.840;37.442;2023-04-01T12:47:26;7.43;;;4.38;;
56073;SDS011;41950;55.840;37.442;2023-04-01T12:52:54;7.03;;;3.97;;
56073;SDS011;41950;55.840;37.442;2023-04-01T12:55:41;8.70;;;4.18;;
56073;SDS011;41950;55.840;37.442;2023-04-01T12:58:25;8.18;;;3.80;;
56073;SDS011;41950;55.840;37.442;2023-04-01T13:06:28;5.97;;;4.10;;
56073;SDS011;41950;55.840;37.442;2023-04-01T13:17:40;8.07;;;4.15;;
56073;SDS011;41950;55.840;37.442;2023-04-01T13:28:26;6.82;;;4.50;;
56073;SDS011;41950;55.840;37.442;2023-04-01T13:39:36;6.40;;;4.03;;
56073;SDS011;41950;55.840;37.442;2023-04-01T13:45:11;7.45;;;4.35;;
56073;SDS011;41950;55.840;37.442;2023-04-01T13:56:08;7.63;;;4.25;;
56073;SDS011;41950;55.840;37.442;2023-04-01T13:59:03;7.53;;;4.50;;
56073;SDS011;41950;55.840;37.442;2023-04-01T14:04:11;8.57;;;4.47;;
56073;SDS011;41950;55.840;37.442;2023-04-01T14:06:57;7.07;;;4.88;;
56073;SDS011;41950;55.840;37.442;2023-04-01T14:17:37;7.90;;;5.40;;
56073;SDS011;41950;55.840;37.442;2023-04-01T14:20:27;7.22;;;5.25;;
56073;SDS011;41950;55.840;37.442;2023-04-01T14:34:04;8.85;;;6.00;;
56073;SDS011;41950;55.840;37.442;2023-04-01T14:51:15;9.30;;;5.57;;
56073;SDS011;41950;55.840;37.442;2023-04-01T14:56:38;7.78;;;5.65;;
56073;SDS011;41950;55.840;37.442;2023-04-01T14:59:09;7.72;;;5.85;;
56073;SDS011;41950;55.840;37.442;2023-04-01T15:04:53;8.98;;;6.82;;
56073;SDS011;41950;55.840;37.442;2023-04-01T15:18:37;10.48;;;7.88;;
56073;SDS011;41950;55.840;37.442;2023-04-01T15:24:06;10.98;;;7.57;;
56073;SDS011;41950;55.840;37.442;2023-04-01T15:34:32;12.18;;;7.45;;
56073;SDS011;41950;55.840;37.442;2023-04-01T15:56:38;10.27;;;8.02;;
56073;SDS011;41950;55.840;37.442;2023-04-01T15:59:24;12.18;;;9.32;;
56073;SDS011;41950;55.840;37.442;2023-04-01T16:04:50;11.55;;;9.85;;
56073;SDS011;41950;55.840;37.442;2023-04-01T16:32:27;13.07;;;9.75;;
56073;SDS011;41950;55.840;37.442;2023-04-01T16:48:59;12.25;;;10.13;;
56073;SDS011;41950;55.840;37.442;2023-04-01T16:51:44;11.98;;;9.13;;
56073;SDS011;41950;55.840;37.442;2023-04-01T16:54:43;11.95;;;9.88;;
56073;SDS011;41950;55.840;37.442;2023-04-01T16:57:23;12.02;;;9.80;;
56073;SDS011;41950;55.840;37.442;2023-04-01T17:03:01;12.93;;;9.50;;
56073;SDS011;41950;55.840;37.442;2023-04-01T17:19:05;11.75;;;8.05;;
56073;SDS011;41950;55.840;37.442;2023-04-01T17:22:03;13.10;;;8.88;;
56073;SDS011;41950;55.840;37.442;2023-04-01T17:24:58;10.32;;;8.18;;
56073;SDS011;41950;55.840;37.442;2023-04-01T17:31:17;10.88;;;8.00;;
56073;SDS011;41950;55.840;37.442;2023-04-01T17:33:43;9.88;;;7.45;;
56073;SDS011;41950;55.840;37.442;2023-04-01T17:36:42;9.65;;;7.43;;
56073;SDS011;41950;55.840;37.442;2023-04-01T17:39:27;9.40;;;7.47;;
56073;SDS011;41950;55.840;37.442;2023-04-01T17:42:09;10.20;;;7.85;;
56073;SDS011;41950;55.840;37.442;2023-04-01T18:01:30;11.50;;;9.48;;
56073;SDS011;41950;55.840;37.442;2023-04-01T18:18:37;11.30;;;8.77;;
56073;SDS011;41950;55.840;37.442;2023-04-01T18:21:43;12.82;;;9.25;;
56073;SDS011;41950;55.840;37.442;2023-04-01T18:26:38;11.93;;;9.10;;
56073;SDS011;41950;55.840;37.442;2023-04-01T18:32:08;12.50;;;9.95;;
56073;SDS011;41950;55.840;37.442;2023-04-01T18:41:05;12.63;;;9.07;;
56073;SDS011;41950;55.840;37.442;2023-04-01T18:52:20;11.43;;;8.57;;
56073;SDS011;41950;55.840;37.442;2023-04-01T18:57:40;11.75;;;9.32;;
56073;SDS011;41950;55.840;37.442;2023-04-01T19:00:22;11.50;;;9.38;;
56073;SDS011;41950;55.840;37.442;2023-04-01T19:02:55;11.85;;;8.77;;
56073;SDS011;41950;55.840;37.442;2023-04-01T19:05:30;11.77;;;8.60;;
56073;SDS011;41950;55.840;37.442;2023-04-01T19:11:07;11.88;;;9.70;;
56073;SDS011;41950;55.840;37.442;2023-04-01T19:25:42;12.68;;;9.75;;
56073;SDS011;41950;55.840;37.442;2023-04-01T19:30:54;11.90;;;8.13;;
56073;SDS011;41950;55.840;37.442;2023-04-01T19:37:03;13.27;;;10.82;;
56073;SDS011;41950;55.840;37.442;2023-04-01T19:47:30;14.27;;;9.68;;
56073;SDS011;41950;55.840;37.442;2023-04-01T19:52:56;14.05;;;10.07;;
56073;SDS011;41950;55.840;37.442;2023-04-01T20:00:51;14.30;;;9.98;;
56073;SDS011;41950;55.840;37.442;2023-04-01T20:03:25;14.23;;;10.52;;
56073;SDS011;41950;55.840;37.442;2023-04-01T20:08:42;14.73;;;11.20;;
56073;SDS011;41950;55.840;37.442;2023-04-01T20:11:30;15.05;;;10.98;;
56073;SDS011;41950;55.840;37.442;2023-04-01T20:14:28;13.57;;;9.90;;
56073;SDS011;41950;55.840;37.442;2023-04-01T20:17:18;13.85;;;10.60;;
56073;SDS011;41950;55.840;37.442;2023-04-01T20:22:23;16.13;;;10.60;;
56073;SDS011;41950;55.840;37.442;2023-04-01T20:25:10;16.92;;;12.50;;
56073;SDS011;41950;55.840;37.442;2023-04-01T20:27:51;14.68;;;11.15;;
56073;SDS011;41950;55.840;37.442;2023-04-01T20:33:12;15.38;;;10.90;;
56073;SDS011;41950;55.840;37.442;2023-04-01T20:44:20;14.02;;;11.05;;
56073;SDS011;41950;55.840;37.442;2023-04-01T20:46:56;14.13;;;11.10;;
56073;SDS011;41950;55.840;37.442;2023-04-01T20:50:06;13.40;;;10.15;;
56073;SDS011;41950;55.840;37.442;2023-04-01T21:00:37;13.68;;;11.18;;
56073;SDS011;41950;55.840;37.442;2023-04-01T21:17:00;14.85;;;11.88;;
56073;SDS011;41950;55.840;37.442;2023-04-01T21:22:24;15.20;;;11.65;;
56073;SDS011;41950;55.840;37.442;2023-04-01T21:24:59;14.82;;;11.85;;
56073;SDS011;41950;55.840;37.442;2023-04-01T21:37:04;15.00;;;11.80;;
56073;SDS011;41950;55.840;37.442;2023-04-01T22:04:27;13.65;;;9.82;;
56073;SDS011;41950;55.840;37.442;2023-04-01T22:10:16;14.23;;;10.50;;
56073;SDS011;41950;55.840;37.442;2023-04-01T22:16:25;13.75;;;11.05;;
56073;SDS011;41950;55.840;37.442;2023-04-01T22:27:01;15.23;;;11.68;;
56073;SDS011;41950;55.840;37.442;2023-04-01T22:37:23;17.13;;;12.57;;
56073;SDS011;41950;55.840;37.442;2023-04-01T22:50:37;14.73;;;11.57;;
56073;SDS011;41950;55.840;37.442;2023-04-01T22:55:51;16.92;;;12.98;;
56073;SDS011;41950;55.840;37.442;2023-04-01T22:58:30;15.85;;;12.75;;
56073;SDS011;41950;55.840;37.442;2023-04-01T23:01:00;18.63;;;14.35;;
56073;SDS011;41950;55.840;37.442;2023-04-01T23:03:31;15.80;;;12.07;;
56073;SDS011;41950;55.840;37.442;2023-04-01T23:06:00;16.20;;;13.30;;
56073;SDS011;41950;55.840;37.442;2023-04-01T23:11:16;19.38;;;13.93;;
56073;SDS011;41950;55.840;37.442;2023-04-01T23:14:34;19.00;;;13.30;;
56073;SDS011;41950;55.840;37.442;2023-04-01T23:28:43;16.80;;;12.88;;
56073;SDS011;41950;55.840;37.442;2023-04-01T23:31:27;20.17;;;15.18;;
56073;SDS011;41950;55.840;37.442;2023-04-01T23:34:00;19.60;;;14.73;;
56073;SDS011;41950;55.840;37.442;2023-04-01T23:36:47;19.88;;;14.40;;
56073;SDS011;41950;55.840;37.442;2023-04-01T23:39:32;18.73;;;13.80;;
56073;SDS011;41950;55.840;37.442;2023-04-01T23:42:38;20.10;;;15.23;;
56073;SDS011;41950;55.840;37.442;2023-04-01T23:44:58;19.83;;;14.30;;
56073;SDS011;41950;55.840;37.442;2023-04-01T23:47:30;19.10;;;15.95;;
56073;SDS011;41950;55.840;37.442;2023-04-01T23:49:58;22.23;;;16.17;;
56073;SDS011;41950;55.840;37.442;2023-04-01T23:55:18;22.00;;;16.05;;
